createdAt,value
2023-03-15T00:00:34.965Z,17
2023-03-15T00:01:34.954Z,15.200000000000001
2023-03-15T00:02:35.012Z,15.5
2023-03-15T00:03:34.998Z,14
2023-03-15T00:04:34.970Z,11.4
2023-03-15T00:05:34.955Z,12.200000000000001
2023-03-15T00:06:34.981Z,14.100000000000001
2023-03-15T00:07:34.951Z,12.700000000000001
2023-03-15T00:08:34.970Z,10.600000000000001
2023-03-15T00:09:34.962Z,6.300000000000001
2023-03-15T00:10:34.961Z,4.3
2023-03-15T00:11:34.954Z,4.2
2023-03-15T00:12:34.983Z,2.8000000000000003
2023-03-15T00:13:34.954Z,14.200000000000001
2023-03-15T00:14:34.980Z,12.9
2023-03-15T00:15:35.004Z,10.700000000000001
2023-03-15T00:16:34.963Z,8.6
2023-03-15T00:17:34.975Z,11.9
2023-03-15T00:18:34.959Z,13.9
2023-03-15T00:19:34.961Z,7.6000000000000005
2023-03-15T00:20:34.962Z,9.9
2023-03-15T00:21:34.953Z,9
2023-03-15T00:22:34.969Z,10.700000000000001
2023-03-15T00:23:34.977Z,13.600000000000001
2023-03-15T00:24:34.947Z,12.100000000000001
2023-03-15T00:25:34.950Z,14.5
2023-03-15T00:26:34.962Z,8.200000000000001
2023-03-15T00:27:34.959Z,7.5
2023-03-15T00:28:34.959Z,4.9
2023-03-15T00:29:34.963Z,7.300000000000001
2023-03-15T00:30:35.003Z,6.9
2023-03-15T00:31:35.003Z,6.800000000000001
2023-03-15T00:32:34.973Z,6.6000000000000005
2023-03-15T00:33:35.204Z,4.800000000000001
2023-03-15T00:34:34.969Z,7.9
2023-03-15T00:35:34.978Z,10.100000000000001
2023-03-15T00:36:34.981Z,9
2023-03-15T00:37:34.967Z,5.1000000000000005
2023-03-15T00:38:34.992Z,11
2023-03-15T00:39:34.974Z,2.2
2023-03-15T00:40:34.977Z,11.600000000000001
2023-03-15T00:41:34.986Z,14.600000000000001
2023-03-15T00:42:34.983Z,20.3
2023-03-15T00:43:34.974Z,12.200000000000001
2023-03-15T00:44:34.970Z,9.9
2023-03-15T00:45:34.994Z,10.8
2023-03-15T00:46:35.055Z,7.2
2023-03-15T00:47:34.979Z,3.8000000000000003
2023-03-15T00:48:34.986Z,5.4
2023-03-15T00:49:34.980Z,5.4
2023-03-15T00:50:34.984Z,7.7
2023-03-15T00:51:34.987Z,6.6000000000000005
2023-03-15T00:52:34.985Z,8.9
2023-03-15T00:53:34.986Z,4.5
2023-03-15T00:54:34.982Z,4.2
2023-03-15T00:55:34.987Z,5.5
2023-03-15T00:56:34.988Z,7.2
2023-03-15T00:57:34.992Z,6.1000000000000005
2023-03-15T00:58:34.992Z,6.7
2023-03-15T00:59:34.984Z,4.2
2023-03-15T01:00:34.994Z,6.4
2023-03-15T01:01:35.036Z,4
2023-03-15T01:02:35.175Z,5.6000000000000005
2023-03-15T01:03:36.794Z,6.1000000000000005
2023-03-15T01:04:34.991Z,3.7
2023-03-15T01:05:34.999Z,6
2023-03-15T01:06:34.993Z,4.800000000000001
2023-03-15T01:07:34.999Z,5.2
2023-03-15T01:08:34.997Z,4.5
2023-03-15T01:09:34.990Z,6.2
2023-03-15T01:10:34.993Z,5.9
2023-03-15T01:11:35.000Z,8.3
2023-03-15T01:12:35.027Z,7.9
2023-03-15T01:13:35.009Z,7.1000000000000005
2023-03-15T01:14:35.006Z,6.4
2023-03-15T01:15:35.001Z,6.1000000000000005
2023-03-15T01:16:35.007Z,5.2
2023-03-15T01:17:35.014Z,3.2
2023-03-15T01:18:35.046Z,6.1000000000000005
2023-03-15T01:19:34.998Z,4.7
2023-03-15T01:20:35.014Z,3.8000000000000003
2023-03-15T01:21:35.002Z,5.1000000000000005
2023-03-15T01:22:35.029Z,1.7000000000000002
2023-03-15T01:23:35.010Z,2.7
2023-03-15T01:24:35.017Z,3.2
2023-03-15T01:25:35.016Z,5.1000000000000005
2023-03-15T01:26:35.018Z,2.8000000000000003
2023-03-15T01:27:35.011Z,2.7
2023-03-15T01:28:35.061Z,6.9
2023-03-15T01:29:35.013Z,6.9
2023-03-15T01:30:35.011Z,5.4
2023-03-15T01:31:35.063Z,4
2023-03-15T01:32:35.066Z,5.6000000000000005
2023-03-15T01:33:35.016Z,3.2
2023-03-15T01:34:35.046Z,1.2000000000000002
2023-03-15T01:35:35.048Z,2.8000000000000003
2023-03-15T01:36:35.032Z,6.4
2023-03-15T01:37:35.020Z,6.6000000000000005
2023-03-15T01:38:35.029Z,4
2023-03-15T01:39:35.016Z,2.8000000000000003
2023-03-15T01:40:35.018Z,0
2023-03-15T01:41:35.038Z,3.2
2023-03-15T01:42:35.024Z,0
2023-03-15T01:43:35.024Z,0
2023-03-15T01:44:35.026Z,0
2023-03-15T01:45:35.026Z,0
2023-03-15T01:46:35.254Z,0
2023-03-15T01:47:35.027Z,0
2023-03-15T01:48:35.058Z,0
2023-03-15T01:49:35.029Z,0
2023-03-15T01:50:35.073Z,0
2023-03-15T01:51:35.036Z,0
2023-03-15T01:52:35.038Z,0
2023-03-15T01:53:35.042Z,0
2023-03-15T01:54:35.048Z,0
2023-03-15T01:55:35.045Z,0
2023-03-15T01:56:35.034Z,0
2023-03-15T01:57:35.029Z,0
2023-03-15T01:58:36.829Z,0
2023-03-15T01:59:35.035Z,0
2023-03-15T02:00:35.045Z,0
2023-03-15T02:01:35.036Z,0
2023-03-15T02:02:35.072Z,0
2023-03-15T02:03:35.038Z,0
2023-03-15T02:04:35.053Z,0
2023-03-15T02:05:35.031Z,4
2023-03-15T02:06:35.094Z,4.3
2023-03-15T02:07:35.054Z,1.7000000000000002
2023-03-15T02:08:35.046Z,4.6000000000000005
2023-03-15T02:09:35.049Z,3.4000000000000004
2023-03-15T02:10:35.039Z,2.7
2023-03-15T02:11:35.051Z,4.7
2023-03-15T02:12:35.063Z,5.2
2023-03-15T02:13:35.054Z,5.7
2023-03-15T02:14:35.038Z,6.1000000000000005
2023-03-15T02:15:35.045Z,4.7
2023-03-15T02:16:35.140Z,4.4
2023-03-15T02:17:35.046Z,3.8000000000000003
2023-03-15T02:18:35.034Z,4.3
2023-03-15T02:19:35.036Z,2.7
2023-03-15T02:20:35.036Z,2.4000000000000004
2023-03-15T02:21:35.041Z,0
2023-03-15T02:22:35.075Z,0
2023-03-15T02:23:35.044Z,0
2023-03-15T02:24:35.052Z,2.9000000000000004
2023-03-15T02:25:35.044Z,4
2023-03-15T02:26:35.063Z,5.7
2023-03-15T02:27:35.109Z,6.4
2023-03-15T02:28:35.047Z,3.5
2023-03-15T02:29:35.040Z,0
2023-03-15T02:30:35.042Z,0
2023-03-15T02:31:35.054Z,0
2023-03-15T02:32:35.102Z,0
2023-03-15T02:33:35.051Z,0
2023-03-15T02:34:35.047Z,0
2023-03-15T02:35:35.071Z,0
2023-03-15T02:36:35.043Z,0
2023-03-15T02:37:35.060Z,0
2023-03-15T02:38:35.069Z,0
2023-03-15T02:39:35.044Z,0
2023-03-15T02:40:35.055Z,0
2023-03-15T02:41:35.058Z,0
2023-03-15T02:42:35.046Z,0
2023-03-15T02:43:35.049Z,0
2023-03-15T02:44:35.057Z,0
2023-03-15T02:45:35.070Z,0
2023-03-15T02:46:35.048Z,0
2023-03-15T02:47:35.046Z,0
2023-03-15T02:48:35.047Z,0
2023-03-15T02:49:35.067Z,0
2023-03-15T02:50:35.052Z,0
2023-03-15T02:51:35.063Z,0
2023-03-15T02:52:35.073Z,0
2023-03-15T02:53:35.057Z,0
2023-03-15T02:54:35.078Z,0
2023-03-15T02:55:35.062Z,0
2023-03-15T02:56:35.075Z,0
2023-03-15T02:57:35.064Z,0
2023-03-15T02:58:35.055Z,0
2023-03-15T02:59:35.059Z,0
2023-03-15T03:00:35.059Z,0
2023-03-15T03:01:35.087Z,4.6000000000000005
2023-03-15T03:02:35.123Z,4.800000000000001
2023-03-15T03:03:35.056Z,3.6
2023-03-15T03:04:35.057Z,3.3000000000000003
2023-03-15T03:05:35.058Z,3.1
2023-03-15T03:06:35.063Z,3
2023-03-15T03:07:35.053Z,3.8000000000000003
2023-03-15T03:08:35.063Z,4.4
2023-03-15T03:09:35.072Z,3.8000000000000003
2023-03-15T03:10:35.093Z,3.3000000000000003
2023-03-15T03:11:35.065Z,7.800000000000001
2023-03-15T03:12:35.064Z,7.4
2023-03-15T03:13:35.055Z,6
2023-03-15T03:14:35.063Z,7.4
2023-03-15T03:15:35.066Z,8.9
2023-03-15T03:16:35.124Z,10
2023-03-15T03:17:35.070Z,9
2023-03-15T03:18:35.077Z,5.800000000000001
2023-03-15T03:19:35.060Z,5.7
2023-03-15T03:20:35.066Z,6.1000000000000005
2023-03-15T03:21:35.068Z,5.5
2023-03-15T03:22:35.075Z,3.6
2023-03-15T03:23:35.076Z,9.5
2023-03-15T03:24:35.071Z,8.6
2023-03-15T03:25:35.076Z,6.800000000000001
2023-03-15T03:26:35.079Z,6.7
2023-03-15T03:27:35.069Z,9.4
2023-03-15T03:28:35.059Z,9.600000000000001
2023-03-15T03:29:35.065Z,13.200000000000001
2023-03-15T03:30:35.112Z,11.4
2023-03-15T03:31:35.062Z,7.5
2023-03-15T03:32:35.121Z,12.600000000000001
2023-03-15T03:33:35.064Z,13.100000000000001
2023-03-15T03:34:35.063Z,19.8
2023-03-15T03:35:35.111Z,17.900000000000002
2023-03-15T03:36:35.056Z,17.7
2023-03-15T03:37:35.058Z,22.5
2023-03-15T03:38:35.057Z,10.3
2023-03-15T03:39:35.050Z,18.7
2023-03-15T03:40:35.057Z,16.900000000000002
2023-03-15T03:41:35.082Z,9.8
2023-03-15T03:42:35.111Z,9.600000000000001
2023-03-15T03:43:35.058Z,7.5
2023-03-15T03:44:35.056Z,9.700000000000001
2023-03-15T03:45:35.060Z,6.6000000000000005
2023-03-15T03:46:35.092Z,8.200000000000001
2023-03-15T03:47:35.066Z,8.1
2023-03-15T03:48:35.065Z,9.3
2023-03-15T03:49:35.065Z,6.2
2023-03-15T03:50:35.067Z,6
2023-03-15T03:51:35.047Z,5.9
2023-03-15T03:52:35.077Z,5
2023-03-15T03:53:35.064Z,10.4
2023-03-15T03:54:35.065Z,8.3
2023-03-15T03:55:35.076Z,6.5
2023-03-15T03:56:35.072Z,8.8
2023-03-15T03:57:35.059Z,8.6
2023-03-15T03:58:35.070Z,9.1
2023-03-15T03:59:35.057Z,7.300000000000001
2023-03-15T04:00:35.059Z,10.9
2023-03-15T04:01:35.067Z,10.700000000000001
2023-03-15T04:02:35.115Z,10.100000000000001
2023-03-15T04:03:35.067Z,20.6
2023-03-15T04:04:35.098Z,12.100000000000001
2023-03-15T04:05:35.067Z,11.600000000000001
2023-03-15T04:06:35.098Z,14.100000000000001
2023-03-15T04:07:35.082Z,13.9
2023-03-15T04:08:35.071Z,14.3
2023-03-15T04:09:35.076Z,16.6
2023-03-15T04:10:35.078Z,15.200000000000001
2023-03-15T04:11:35.071Z,11.9
2023-03-15T04:12:35.167Z,18.3
2023-03-15T04:13:35.085Z,18.1
2023-03-15T04:14:35.107Z,23.8
2023-03-15T04:15:35.072Z,18.7
2023-03-15T04:16:35.092Z,25.8
2023-03-15T04:17:35.094Z,16.7
2023-03-15T04:18:35.091Z,14.100000000000001
2023-03-15T04:19:35.089Z,12.3
2023-03-15T04:20:35.078Z,17
2023-03-15T04:21:35.080Z,22.400000000000002
2023-03-15T04:22:35.089Z,17.6
2023-03-15T04:23:35.088Z,23.3
2023-03-15T04:24:35.092Z,22.400000000000002
2023-03-15T04:25:35.100Z,22.200000000000003
2023-03-15T04:26:35.088Z,14.5
2023-03-15T04:27:35.092Z,15.600000000000001
2023-03-15T04:28:35.124Z,23.700000000000003
2023-03-15T04:29:35.096Z,14.600000000000001
2023-03-15T04:30:35.141Z,18.7
2023-03-15T04:31:35.135Z,12.700000000000001
2023-03-15T04:32:35.132Z,16.1
2023-03-15T04:33:35.114Z,14.3
2023-03-15T04:34:35.100Z,19.6
2023-03-15T04:35:35.146Z,22.900000000000002
2023-03-15T04:36:35.118Z,12.4
2023-03-15T04:37:35.112Z,12.9
2023-03-15T04:38:35.123Z,13.700000000000001
2023-03-15T04:39:35.115Z,16
2023-03-15T04:40:35.149Z,14.3
2023-03-15T04:41:35.131Z,22.700000000000003
2023-03-15T04:42:35.118Z,6.4
2023-03-15T04:43:35.118Z,5.6000000000000005
2023-03-15T04:44:35.123Z,26.3
2023-03-15T04:45:35.130Z,18.400000000000002
2023-03-15T04:46:35.230Z,13.600000000000001
2023-03-15T04:47:35.131Z,9
2023-03-15T04:48:35.132Z,5.4
2023-03-15T04:49:35.134Z,12.600000000000001
2023-03-15T04:50:35.139Z,8
2023-03-15T04:51:35.143Z,21.5
2023-03-15T04:52:35.137Z,9.8
2023-03-15T04:53:35.137Z,23
2023-03-15T04:54:35.140Z,21.6
2023-03-15T04:55:35.137Z,21.1
2023-03-15T04:56:35.142Z,16.3
2023-03-15T04:57:35.150Z,16.7
2023-03-15T04:58:35.148Z,11.9
2023-03-15T04:59:35.135Z,11
2023-03-15T05:00:35.156Z,12.5
2023-03-15T05:01:35.217Z,13.200000000000001
2023-03-15T05:02:35.163Z,15.3
2023-03-15T05:03:35.140Z,24.900000000000002
2023-03-15T05:04:35.137Z,15.5
2023-03-15T05:05:35.143Z,14.8
2023-03-15T05:06:35.145Z,11
2023-03-15T05:07:35.136Z,6.7
2023-03-15T05:08:35.150Z,9.3
2023-03-15T05:09:35.140Z,13.3
2023-03-15T05:10:35.181Z,7
2023-03-15T05:11:35.151Z,10.9
2023-03-15T05:12:35.163Z,11.600000000000001
2023-03-15T05:13:35.155Z,15.5
2023-03-15T05:14:35.156Z,9.8
2023-03-15T05:15:35.156Z,9.3
2023-03-15T05:16:35.204Z,13.5
2023-03-15T05:17:35.160Z,4.2
2023-03-15T05:18:35.206Z,9.600000000000001
2023-03-15T05:19:35.165Z,8.700000000000001
2023-03-15T05:20:35.165Z,14.4
2023-03-15T05:21:35.172Z,15.200000000000001
2023-03-15T05:22:35.171Z,7.9
2023-03-15T05:23:35.163Z,16.6
2023-03-15T05:24:35.169Z,13.5
2023-03-15T05:25:36.829Z,9.700000000000001
2023-03-15T05:26:35.194Z,10.100000000000001
2023-03-15T05:27:35.180Z,13.600000000000001
2023-03-15T05:28:35.173Z,20.400000000000002
2023-03-15T05:29:35.177Z,9.1
2023-03-15T05:30:35.174Z,7.6000000000000005
2023-03-15T05:31:35.186Z,17.2
2023-03-15T05:32:35.284Z,14.200000000000001
2023-03-15T05:33:35.193Z,15.600000000000001
2023-03-15T05:34:35.213Z,13.5
2023-03-15T05:35:35.279Z,15
2023-03-15T05:36:35.181Z,14.9
2023-03-15T05:37:35.183Z,25.8
2023-03-15T05:38:35.193Z,10.600000000000001
2023-03-15T05:39:35.188Z,23.200000000000003
2023-03-15T05:40:35.194Z,24.1
2023-03-15T05:41:35.215Z,20.3
2023-03-15T05:42:35.221Z,19.3
2023-03-15T05:43:35.195Z,29.400000000000002
2023-03-15T05:44:35.182Z,18.400000000000002
2023-03-15T05:45:35.232Z,17.400000000000002
2023-03-15T05:46:35.184Z,31.200000000000003
2023-03-15T05:47:35.187Z,29.6
2023-03-15T05:48:35.189Z,20.700000000000003
2023-03-15T05:49:35.193Z,23.900000000000002
2023-03-15T05:50:35.236Z,22.8
2023-03-15T05:51:35.205Z,14.200000000000001
2023-03-15T05:52:35.205Z,18.2
2023-03-15T05:53:35.203Z,31.8
2023-03-15T05:54:35.210Z,19.900000000000002
2023-03-15T05:55:35.205Z,11.200000000000001
2023-03-15T05:56:35.203Z,12.3
2023-03-15T05:57:35.222Z,12.8
2023-03-15T05:58:35.215Z,11.600000000000001
2023-03-15T05:59:35.213Z,8.9
2023-03-15T06:00:35.213Z,5.2
2023-03-15T06:01:35.213Z,4.2
2023-03-15T06:02:35.202Z,10.700000000000001
2023-03-15T06:03:35.283Z,13.8
2023-03-15T06:04:35.224Z,10.5
2023-03-15T06:05:35.237Z,17.6
2023-03-15T06:06:35.240Z,16.7
2023-03-15T06:07:35.209Z,15.200000000000001
2023-03-15T06:08:35.216Z,13.4
2023-03-15T06:09:35.212Z,19.5
2023-03-15T06:10:35.214Z,8.9
2023-03-15T06:11:35.229Z,16.400000000000002
2023-03-15T06:12:35.221Z,11.8
2023-03-15T06:13:35.221Z,11.700000000000001
2023-03-15T06:14:35.230Z,13.3
2023-03-15T06:15:35.218Z,14.3
2023-03-15T06:16:35.273Z,15.200000000000001
2023-03-15T06:17:35.228Z,26.400000000000002
2023-03-15T06:18:35.229Z,25.6
2023-03-15T06:19:37.399Z,17.5
2023-03-15T06:20:35.222Z,11.8
2023-03-15T06:21:35.217Z,14.3
2023-03-15T06:22:35.259Z,8.6
2023-03-15T06:23:35.227Z,22
2023-03-15T06:24:35.227Z,11.200000000000001
2023-03-15T06:25:35.224Z,27.6
2023-03-15T06:26:35.227Z,22.6
2023-03-15T06:27:35.228Z,17.900000000000002
2023-03-15T06:28:35.233Z,12.9
2023-03-15T06:29:35.224Z,8.700000000000001
2023-03-15T06:30:35.313Z,16.3
2023-03-15T06:31:35.262Z,18.900000000000002
2023-03-15T06:32:35.284Z,15.9
2023-03-15T06:33:35.256Z,18.900000000000002
2023-03-15T06:34:35.244Z,13.3
2023-03-15T06:35:35.258Z,0
2023-03-15T06:36:35.240Z,3.2
2023-03-15T06:37:35.801Z,18.8
2023-03-15T06:38:35.267Z,13.100000000000001
2023-03-15T06:39:35.234Z,1.5
2023-03-15T06:40:35.234Z,14.4
2023-03-15T06:41:35.241Z,0.30000000000000004
2023-03-15T06:42:35.243Z,19.900000000000002
2023-03-15T06:43:35.241Z,1.6
2023-03-15T06:44:35.245Z,0
2023-03-15T06:45:35.243Z,26.5
2023-03-15T06:46:35.257Z,15.600000000000001
2023-03-15T06:47:35.242Z,13.8
2023-03-15T06:48:35.247Z,18.7
2023-03-15T06:49:35.250Z,16.8
2023-03-15T06:50:46.320Z,6.5
2023-03-15T06:51:35.238Z,13.700000000000001
2023-03-15T06:52:35.244Z,18.5
2023-03-15T06:53:35.252Z,16.8
2023-03-15T06:54:35.288Z,18.5
2023-03-15T06:55:35.251Z,15.200000000000001
2023-03-15T06:56:35.256Z,10.600000000000001
2023-03-15T06:57:35.252Z,17.8
2023-03-15T06:58:35.255Z,16.8
2023-03-15T06:59:35.254Z,14.100000000000001
2023-03-15T07:00:35.257Z,5.5
2023-03-15T07:01:35.312Z,9.8
2023-03-15T07:02:35.305Z,10.5
2023-03-15T07:03:35.265Z,10.100000000000001
2023-03-15T07:04:35.254Z,12.700000000000001
2023-03-15T07:05:35.249Z,9.700000000000001
2023-03-15T07:06:35.268Z,3.5
2023-03-15T07:07:35.257Z,12
2023-03-15T07:08:35.250Z,6.800000000000001
2023-03-15T07:09:35.263Z,12
2023-03-15T07:10:35.272Z,8
2023-03-15T07:11:35.252Z,11.200000000000001
2023-03-15T07:12:35.260Z,4.5
2023-03-15T07:13:35.268Z,7.1000000000000005
2023-03-15T07:14:35.270Z,8.200000000000001
2023-03-15T07:15:35.266Z,6.2
2023-03-15T07:16:35.262Z,11.600000000000001
2023-03-15T07:17:35.277Z,11.9
2023-03-15T07:18:35.260Z,9.700000000000001
2023-03-15T07:19:37.283Z,13.600000000000001
2023-03-15T07:20:37.562Z,8.3
2023-03-15T07:21:35.273Z,8.4
2023-03-15T07:22:35.270Z,25.200000000000003
2023-03-15T07:23:35.264Z,16.5
2023-03-15T07:24:35.262Z,7.2
2023-03-15T07:25:45.060Z,23.900000000000002
2023-03-15T07:26:35.286Z,18.900000000000002
2023-03-15T07:27:35.266Z,16.2
2023-03-15T07:28:35.278Z,21.3
2023-03-15T07:29:35.269Z,19.200000000000003
2023-03-15T07:30:35.257Z,13.100000000000001
2023-03-15T07:31:35.268Z,10.5
2023-03-15T07:32:35.412Z,6.300000000000001
2023-03-15T07:33:35.265Z,14.3
2023-03-15T07:34:35.285Z,11.5
2023-03-15T07:35:35.301Z,12.9
2023-03-15T07:36:35.273Z,12.5
2023-03-15T07:37:35.265Z,14.200000000000001
2023-03-15T07:38:35.268Z,14.5
2023-03-15T07:39:35.258Z,18.5
2023-03-15T07:40:35.261Z,8.4
2023-03-15T07:41:35.266Z,11.600000000000001
2023-03-15T07:42:35.278Z,10.3
2023-03-15T07:43:35.265Z,16.1
2023-03-15T07:44:35.264Z,21.400000000000002
2023-03-15T07:45:35.270Z,18.2
2023-03-15T07:46:35.329Z,8
2023-03-15T07:47:35.270Z,7.300000000000001
2023-03-15T07:48:35.272Z,11.200000000000001
2023-03-15T07:49:35.269Z,10.5
2023-03-15T07:50:35.280Z,14.9
2023-03-15T07:51:35.275Z,18.400000000000002
2023-03-15T07:52:35.272Z,22.900000000000002
2023-03-15T07:53:35.285Z,22.3
2023-03-15T07:54:35.276Z,30.8
2023-03-15T07:55:35.315Z,15.600000000000001
2023-03-15T07:56:35.282Z,18.3
2023-03-15T07:57:35.288Z,18.7
2023-03-15T07:58:35.303Z,18.900000000000002
2023-03-15T07:59:35.284Z,17.900000000000002
2023-03-15T08:00:35.282Z,15.100000000000001
2023-03-15T08:01:35.304Z,23.8
2023-03-15T08:02:35.293Z,28
2023-03-15T08:03:35.310Z,25.700000000000003
2023-03-15T08:04:36.880Z,18.7
2023-03-15T08:05:35.302Z,14.9
2023-03-15T08:06:35.305Z,15.700000000000001
2023-03-15T08:07:35.307Z,18.2
2023-03-15T08:08:35.300Z,19.6
2023-03-15T08:09:35.302Z,22.700000000000003
2023-03-15T08:10:35.299Z,15.600000000000001
2023-03-15T08:12:35.316Z,16.3
2023-03-15T08:13:35.306Z,20.700000000000003
2023-03-15T08:14:35.345Z,20.8
2023-03-15T08:15:35.320Z,20.5
2023-03-15T08:16:35.368Z,15
2023-03-15T08:17:35.309Z,14.600000000000001
2023-03-15T08:18:35.324Z,15.700000000000001
2023-03-15T08:19:35.309Z,9.4
2023-03-15T08:20:35.309Z,17.8
2023-03-15T08:21:35.311Z,16.900000000000002
2023-03-15T08:22:36.994Z,17.6
2023-03-15T08:23:35.318Z,14.100000000000001
2023-03-15T08:24:35.321Z,14.5
2023-03-15T08:25:35.313Z,21.900000000000002
2023-03-15T08:26:35.330Z,26.6
2023-03-15T08:27:35.312Z,19.6
2023-03-15T08:28:35.326Z,20.5
2023-03-15T08:29:35.339Z,24.700000000000003
2023-03-15T08:30:35.347Z,17.5
2023-03-15T08:31:35.368Z,22.3
2023-03-15T08:32:35.358Z,14.9
2023-03-15T08:33:35.328Z,13.5
2023-03-15T08:34:35.333Z,27.400000000000002
2023-03-15T08:35:35.355Z,18
2023-03-15T08:36:35.422Z,15.100000000000001
2023-03-15T08:37:35.338Z,18.5
2023-03-15T08:38:35.331Z,10.5
2023-03-15T08:39:35.331Z,17.8
2023-03-15T08:40:35.355Z,13.8
2023-03-15T08:41:35.337Z,13.100000000000001
2023-03-15T08:42:35.339Z,16
2023-03-15T08:43:35.336Z,12.700000000000001
2023-03-15T08:44:36.326Z,14.9
2023-03-15T08:45:46.849Z,13.700000000000001
2023-03-15T08:46:35.422Z,31
2023-03-15T08:47:35.445Z,25.400000000000002
2023-03-15T08:48:35.345Z,26.400000000000002
2023-03-15T08:49:35.343Z,19.900000000000002
2023-03-15T08:50:35.348Z,18.5
2023-03-15T08:51:35.355Z,8.3
2023-03-15T08:52:35.356Z,18.400000000000002
2023-03-15T08:53:35.366Z,23.5
2023-03-15T08:54:35.362Z,17.400000000000002
2023-03-15T08:55:35.353Z,14.600000000000001
2023-03-15T08:56:35.358Z,19.3
2023-03-15T08:57:35.366Z,24.700000000000003
2023-03-15T08:58:35.352Z,21.700000000000003
2023-03-15T08:59:35.351Z,24.6
2023-03-15T09:00:35.352Z,18.8
2023-03-15T09:01:35.350Z,17.2
2023-03-15T09:02:35.494Z,27.900000000000002
2023-03-15T09:03:35.341Z,27.700000000000003
2023-03-15T09:04:35.408Z,26.3
2023-03-15T09:05:35.350Z,18.6
2023-03-15T09:06:35.349Z,20.200000000000003
2023-03-15T09:07:35.374Z,16.7
2023-03-15T09:08:35.378Z,18.3
2023-03-15T09:09:35.366Z,22.8
2023-03-15T09:10:35.361Z,14.3
2023-03-15T09:11:35.364Z,11.100000000000001
2023-03-15T09:12:35.364Z,10
2023-03-15T09:13:35.363Z,14.3
2023-03-15T09:14:35.415Z,17.2
2023-03-15T09:15:35.359Z,13.3
2023-03-15T09:16:35.465Z,17.1
2023-03-15T09:17:35.385Z,26.6
2023-03-15T09:18:35.387Z,23.900000000000002
2023-03-15T09:19:35.400Z,19
2023-03-15T09:20:35.375Z,20
2023-03-15T09:21:35.376Z,15.700000000000001
2023-03-15T09:22:39.238Z,18.1
2023-03-15T09:23:35.375Z,15.4
2023-03-15T09:24:35.374Z,16.8
2023-03-15T09:25:35.388Z,18.1
2023-03-15T09:26:35.385Z,21.1
2023-03-15T09:27:35.487Z,16.5
2023-03-15T09:28:35.379Z,13.700000000000001
2023-03-15T09:29:35.385Z,19
2023-03-15T09:30:35.432Z,30.3
2023-03-15T09:31:35.394Z,23.200000000000003
2023-03-15T09:32:35.533Z,13.9
2023-03-15T09:33:35.397Z,12.9
2023-03-15T09:34:41.615Z,16.900000000000002
2023-03-15T09:35:35.441Z,20.6
2023-03-15T09:36:35.387Z,17.5
2023-03-15T09:37:35.505Z,22.700000000000003
2023-03-15T09:38:35.400Z,12.200000000000001
2023-03-15T09:39:35.396Z,19.900000000000002
2023-03-15T09:40:35.403Z,10.8
2023-03-15T09:41:35.392Z,22.5
2023-03-15T09:42:35.530Z,21.200000000000003
2023-03-15T09:43:35.398Z,18.1
2023-03-15T09:44:35.396Z,17.7
2023-03-15T09:45:35.401Z,16.900000000000002
2023-03-15T09:46:35.439Z,23.5
2023-03-15T09:47:35.487Z,19
2023-03-15T09:48:35.404Z,12.9
2023-03-15T09:49:35.411Z,17.3
2023-03-15T09:50:35.417Z,19.700000000000003
2023-03-15T09:51:35.475Z,24.900000000000002
2023-03-15T09:52:35.409Z,19.3
2023-03-15T09:53:35.418Z,24.200000000000003
2023-03-15T09:54:35.421Z,31
2023-03-15T09:55:35.421Z,18.8
2023-03-15T09:56:35.421Z,17.1
2023-03-15T09:57:35.515Z,17.5
2023-03-15T09:58:35.470Z,11.9
2023-03-15T09:59:35.420Z,18.400000000000002
2023-03-15T10:00:35.424Z,10.200000000000001
2023-03-15T10:01:35.482Z,11.700000000000001
2023-03-15T10:02:35.437Z,18
2023-03-15T10:03:35.451Z,12.100000000000001
2023-03-15T10:04:35.444Z,13.5
2023-03-15T10:05:35.440Z,16.8
2023-03-15T10:06:37.691Z,16.1
2023-03-15T10:07:35.441Z,10.100000000000001
2023-03-15T10:08:35.451Z,7.9
2023-03-15T10:09:35.442Z,11.600000000000001
2023-03-15T10:10:35.447Z,12.4
2023-03-15T10:11:35.455Z,14.700000000000001
2023-03-15T10:12:35.444Z,12.5
2023-03-15T10:13:35.453Z,15.200000000000001
2023-03-15T10:14:35.459Z,6.5
2023-03-15T10:15:35.457Z,8
2023-03-15T10:16:35.456Z,3.6
2023-03-15T10:17:35.457Z,5.7
2023-03-15T10:18:35.465Z,7
2023-03-15T10:19:35.449Z,8.5
2023-03-15T10:20:35.448Z,15.100000000000001
2023-03-15T10:21:35.450Z,17.900000000000002
2023-03-15T10:22:35.480Z,14.5
2023-03-15T10:23:35.456Z,12.4
2023-03-15T10:24:35.473Z,12.700000000000001
2023-03-15T10:25:35.474Z,17.6
2023-03-15T10:26:35.468Z,12.4
2023-03-15T10:27:35.495Z,14.600000000000001
2023-03-15T10:28:37.015Z,15.5
2023-03-15T10:29:35.468Z,25.700000000000003
2023-03-15T10:30:35.463Z,21.1
2023-03-15T10:31:43.937Z,15.5
2023-03-15T10:32:35.520Z,15.100000000000001
2023-03-15T10:33:35.471Z,17.900000000000002
2023-03-15T10:34:35.474Z,14.700000000000001
2023-03-15T10:35:35.489Z,13.4
2023-03-15T10:36:35.569Z,15.5
2023-03-15T10:37:35.791Z,14
2023-03-15T10:38:35.495Z,19.400000000000002
2023-03-15T10:39:35.464Z,15.5
2023-03-15T10:40:35.492Z,17
2023-03-15T10:41:35.490Z,18.1
2023-03-15T10:42:35.466Z,9
2023-03-15T10:43:35.555Z,16.1
2023-03-15T10:44:35.493Z,17.6
2023-03-15T10:45:35.486Z,23.6
2023-03-15T10:46:35.631Z,17.6
2023-03-15T10:47:35.510Z,10.700000000000001
2023-03-15T10:48:35.512Z,15.700000000000001
2023-03-15T10:49:35.507Z,22.6
2023-03-15T10:50:35.493Z,16.2
2023-03-15T10:51:35.489Z,15.5
2023-03-15T10:52:35.696Z,12.5
2023-03-15T10:53:35.497Z,16.8
2023-03-15T10:54:35.530Z,17.8
2023-03-15T10:55:35.492Z,17.5
2023-03-15T10:56:35.498Z,16.1
2023-03-15T10:57:35.505Z,22.900000000000002
2023-03-15T10:58:35.494Z,15.3
2023-03-15T10:59:35.557Z,14
2023-03-15T11:00:35.492Z,22
2023-03-15T11:01:35.506Z,11.3
2023-03-15T11:02:35.535Z,12.600000000000001
2023-03-15T11:03:35.505Z,15.200000000000001
2023-03-15T11:04:35.514Z,11.200000000000001
2023-03-15T11:06:35.481Z,15.700000000000001
2023-03-15T11:07:35.498Z,17.1
2023-03-15T11:08:35.498Z,11.8
2023-03-15T11:09:35.482Z,15
2023-03-15T11:10:35.570Z,22.200000000000003
2023-03-15T11:11:35.497Z,14.9
2023-03-15T11:12:35.486Z,16.2
2023-03-15T11:13:35.496Z,22.3
2023-03-15T11:14:35.505Z,20
2023-03-15T11:15:35.509Z,18.3
2023-03-15T11:16:35.600Z,19.900000000000002
2023-03-15T11:17:35.507Z,19.5
2023-03-15T11:18:35.497Z,11.700000000000001
2023-03-15T11:19:35.509Z,17
2023-03-15T11:20:35.504Z,14.5
2023-03-15T11:21:35.506Z,17.1
2023-03-15T11:22:35.510Z,28.5
2023-03-15T11:23:35.513Z,19.1
2023-03-15T11:24:35.557Z,16.6
2023-03-15T11:25:35.523Z,20.200000000000003
2023-03-15T11:26:35.542Z,23.8
2023-03-15T11:27:35.528Z,22.700000000000003
2023-03-15T11:28:35.556Z,17.3
2023-03-15T11:29:35.516Z,10.4
2023-03-15T11:30:35.509Z,16.900000000000002
2023-03-15T11:31:35.565Z,17.2
2023-03-15T11:32:35.568Z,15.3
2023-03-15T11:33:35.520Z,12.100000000000001
2023-03-15T11:34:35.519Z,13.8
2023-03-15T11:35:35.603Z,17.7
2023-03-15T11:36:35.514Z,15
2023-03-15T11:37:35.521Z,24.1
2023-03-15T11:38:35.519Z,13.3
2023-03-15T11:39:35.527Z,12.8
2023-03-15T11:40:35.523Z,18.900000000000002
2023-03-15T11:41:35.546Z,10.3
2023-03-15T11:42:35.562Z,6.9
2023-03-15T11:43:35.536Z,7.4
2023-03-15T11:44:35.519Z,10.700000000000001